Time;durP1;ratioP1;P1;durP2;ratioP2;P2;SDS_P1;SDS_P2;PMS_P1;PMS_P2;Temp;Humidity;BMP_temperature;BMP_pressure;BME280_temperature;BME280_humidity;BME280_pressure;Samples;Min_cycle;Max_cycle;Signal;HPM_P1;HPM_P2
2022/01/15 00:01:06;;;;;;;4.32;2.15;;;9.30;99.90;;;;;;5030958;28;20482;-69
2022/01/15 00:03:32;;;;;;;4.40;2.17;;;9.20;99.90;;;;;;5029076;28;20033;-69
2022/01/15 00:05:58;;;;;;;5.05;2.00;;;9.30;99.90;;;;;;5042656;28;20525;-69
2022/01/15 00:08:25;;;;;;;7.10;2.15;;;9.30;99.90;;;;;;5050578;28;20501;-69
2022/01/15 00:10:51;;;;;;;5.20;2.10;;;9.20;99.90;;;;;;5050595;28;20029;-70
2022/01/15 00:13:30;;;;;;;5.72;2.20;;;9.20;99.90;;;;;;5050545;28;20095;-68
2022/01/15 00:16:09;;;;;;;3.42;2.00;;;9.20;99.90;;;;;;5050381;28;20111;-69
2022/01/15 00:21:12;;;;;;;4.00;2.10;;;9.20;99.90;;;;;;5050749;28;20397;-70
2022/01/15 00:23:38;;;;;;;4.50;2.00;;;9.30;99.90;;;;;;5050197;28;20017;-70
2022/01/15 00:26:04;;;;;;;5.70;2.20;;;9.20;99.90;;;;;;5050507;28;20025;-70
2022/01/15 00:28:30;;;;;;;4.95;2.20;;;9.20;99.90;;;;;;5049856;28;20335;-70
2022/01/15 00:30:56;;;;;;;5.75;2.22;;;9.20;99.90;;;;;;5050430;28;20450;-69
2022/01/15 00:33:24;;;;;;;5.22;2.20;;;9.10;99.90;;;;;;5050398;28;20025;-69
2022/01/15 00:35:50;;;;;;;5.40;2.00;;;9.10;99.90;;;;;;5050380;28;20037;-70
2022/01/15 00:38:16;;;;;;;5.33;2.13;;;9.00;99.90;;;;;;5050332;28;20028;-70
2022/01/15 00:40:42;;;;;;;5.60;2.22;;;9.00;99.90;;;;;;5050215;28;20135;-70
2022/01/15 00:43:08;;;;;;;4.50;2.33;;;8.90;99.90;;;;;;5049890;28;20028;-69
2022/01/15 00:45:34;;;;;;;6.30;2.25;;;8.90;99.90;;;;;;5050369;28;20029;-69
2022/01/15 00:48:00;;;;;;;4.60;2.10;;;8.90;99.90;;;;;;5049968;28;20017;-69
2022/01/15 00:50:26;;;;;;;4.47;2.07;;;8.90;99.90;;;;;;5049720;28;20060;-69
2022/01/15 00:52:52;;;;;;;4.68;2.10;;;8.90;99.90;;;;;;5049990;28;20025;-69
2022/01/15 00:55:19;;;;;;;4.40;2.45;;;8.90;99.90;;;;;;5050259;28;20032;-69
2022/01/15 00:57:45;;;;;;;;;;;8.90;99.90;;;;;;5050410;28;20071;-68
2022/01/15 01:00:17;;;;;;;6.65;2.50;;;8.90;99.90;;;;;;5031630;28;19970;-68
2022/01/15 01:02:44;;;;;;;3.95;1.90;;;8.90;99.90;;;;;;5050046;28;20040;-69
2022/01/15 01:05:11;;;;;;;6.43;2.20;;;9.20;99.90;;;;;;5049934;28;20119;-69
2022/01/15 01:07:37;;;;;;;3.92;2.00;;;9.10;99.90;;;;;;5031876;28;20075;-69
2022/01/15 01:10:49;;;;;;;5.40;2.42;;;9.10;99.90;;;;;;5049633;28;20055;-69
2022/01/15 01:23:33;;;;;;;4.50;1.95;;;8.90;99.90;;;;;;5053342;28;20446;-69
2022/01/15 01:26:08;;;;;;;5.13;2.07;;;8.90;99.90;;;;;;5053525;28;20032;-69
2022/01/15 01:28:39;;;;;;;5.30;1.88;;;8.90;99.90;;;;;;5053592;28;20033;-69
2022/01/15 01:31:25;;;;;;;5.95;2.15;;;8.80;99.90;;;;;;5053762;28;20098;-69
2022/01/15 01:33:55;;;;;;;;;;;8.90;99.90;;;;;;5053747;28;20097;-69
2022/01/15 01:36:39;;;;;;;4.53;1.98;;;8.90;99.90;;;;;;5053316;28;20349;-71
2022/01/15 01:39:12;;;;;;;5.20;2.30;;;8.90;99.90;;;;;;5054144;28;20076;-69
2022/01/15 01:41:42;;;;;;;4.70;2.03;;;9.00;99.90;;;;;;5053243;28;20496;-69
2022/01/15 01:44:15;;;;;;;5.50;2.25;;;9.00;99.90;;;;;;5053579;28;20389;-69
2022/01/15 01:46:49;;;;;;;6.22;2.15;;;9.00;99.90;;;;;;5052823;28;20051;-69
2022/01/15 01:49:16;;;;;;;4.00;2.00;;;9.00;99.90;;;;;;5052799;28;20358;-70
2022/01/15 01:51:42;;;;;;;6.60;2.47;;;9.00;99.90;;;;;;5052787;28;20067;-69
2022/01/15 01:54:11;;;;;;;4.82;2.28;;;9.00;99.90;;;;;;5052607;28;20036;-69
2022/01/15 01:56:38;;;;;;;6.75;2.40;;;9.00;99.90;;;;;;5052730;28;20069;-69
2022/01/15 01:59:05;;;;;;;;;;;9.00;99.90;;;;;;5053054;28;20500;-69
2022/01/15 02:01:32;;;;;;;5.95;2.00;;;9.00;99.90;;;;;;5052870;28;19904;-69
2022/01/15 02:03:58;;;;;;;5.82;2.00;;;8.90;99.90;;;;;;5035027;28;20128;-69
2022/01/15 02:06:24;;;;;;;5.73;2.27;;;8.90;99.90;;;;;;5052496;28;20053;-69
2022/01/15 02:08:53;;;;;;;7.90;2.20;;;8.90;99.90;;;;;;5034487;28;20025;-69
2022/01/15 02:11:20;;;;;;;4.10;2.00;;;8.90;99.90;;;;;;5052788;28;20037;-69
2022/01/15 02:13:47;;;;;;;6.57;2.20;;;8.90;99.90;;;;;;5052294;28;20108;-69
2022/01/15 02:16:13;;;;;;;;;;;8.90;99.90;;;;;;5052671;28;20469;-67
2022/01/15 02:18:39;;;;;;;6.78;2.00;;;8.80;99.90;;;;;;5052749;28;19995;-69
2022/01/15 02:23:35;;;;;;;6.43;2.30;;;8.80;99.90;;;;;;5052190;28;20021;-69
2022/01/15 02:26:07;;;;;;;6.53;2.30;;;8.80;99.90;;;;;;5050965;28;20541;-69
2022/01/15 02:28:36;;;;;;;4.35;1.98;;;8.80;99.90;;;;;;5052357;28;20073;-69
2022/01/15 02:31:07;;;;;;;5.90;2.13;;;8.80;99.90;;;;;;5052182;28;20041;-70
2022/01/15 02:33:34;;;;;;;10.52;2.65;;;8.80;99.90;;;;;;5052002;28;20020;-69
2022/01/15 02:36:01;;;;;;;;;;;8.70;99.90;;;;;;5052553;28;20066;-69
2022/01/15 02:38:27;;;;;;;;;;;8.80;99.90;;;;;;5052640;28;19912;-70
2022/01/15 02:40:53;;;;;;;6.87;2.03;;;8.70;99.90;;;;;;5051908;28;19912;-69
2022/01/15 02:43:27;;;;;;;6.70;2.42;;;8.70;99.90;;;;;;5051792;28;20731;-69
2022/01/15 02:45:55;;;;;;;3.30;1.80;;;8.60;99.90;;;;;;5051766;28;20036;-69
2022/01/15 02:48:26;;;;;;;4.90;1.75;;;8.60;99.90;;;;;;5051671;28;20033;-69
2022/01/15 02:50:52;;;;;;;4.43;2.30;;;8.60;99.90;;;;;;5051601;28;20044;-70
2022/01/15 02:53:19;;;;;;;4.18;2.28;;;8.50;99.90;;;;;;5052065;28;20029;-69
2022/01/15 02:55:49;;;;;;;4.95;2.50;;;8.60;99.90;;;;;;5051823;28;20120;-68
2022/01/15 02:58:17;;;;;;;4.43;2.25;;;8.60;99.90;;;;;;5051888;28;20024;-70
2022/01/15 03:00:43;;;;;;;5.57;2.40;;;8.60;99.90;;;;;;5051601;28;20101;-69
2022/01/15 03:03:09;;;;;;;5.55;2.22;;;8.60;99.90;;;;;;5051545;28;20053;-70
2022/01/15 03:05:35;;;;;;;5.28;2.22;;;8.60;99.90;;;;;;5051462;28;20072;-69
2022/01/15 03:08:01;;;;;;;6.28;2.15;;;8.60;99.90;;;;;;5033314;28;20029;-69
2022/01/15 03:10:28;;;;;;;6.20;2.30;;;8.60;99.90;;;;;;5051564;28;20500;-68
2022/01/15 03:12:56;;;;;;;4.53;2.38;;;8.50;99.90;;;;;;5051162;28;20029;-69
2022/01/15 03:15:22;;;;;;;6.55;2.55;;;8.50;99.90;;;;;;5051261;28;20331;-69
2022/01/15 03:17:49;;;;;;;8.07;2.72;;;8.40;99.90;;;;;;5051197;28;20025;-68
2022/01/15 03:20:17;;;;;;;6.07;2.05;;;8.40;99.90;;;;;;5051527;28;20420;-69
2022/01/15 03:22:44;;;;;;;5.50;2.25;;;8.40;99.90;;;;;;5051272;28;20051;-69
2022/01/15 03:25:11;;;;;;;4.70;2.17;;;8.40;99.90;;;;;;5051150;28;20422;-69
2022/01/15 03:27:37;;;;;;;6.60;1.92;;;8.30;99.90;;;;;;5051097;28;20032;-68
2022/01/15 03:30:06;;;;;;;6.50;1.95;;;8.40;99.90;;;;;;5051136;28;20025;-69
2022/01/15 03:32:32;;;;;;;7.40;2.30;;;8.30;99.90;;;;;;5051213;28;20045;-69
2022/01/15 03:34:58;;;;;;;5.20;2.60;;;8.30;99.90;;;;;;5050827;28;20112;-69
2022/01/15 03:37:24;;;;;;;6.50;3.10;;;8.40;99.90;;;;;;5050486;28;20267;-69
2022/01/15 03:39:50;;;;;;;5.60;2.78;;;8.50;99.90;;;;;;5051088;28;20066;-69
2022/01/15 03:42:17;;;;;;;5.30;2.67;;;8.40;99.90;;;;;;5050678;28;20033;-69
2022/01/15 03:44:47;;;;;;;8.95;3.00;;;8.40;99.90;;;;;;5051031;28;20033;-69
2022/01/15 03:47:14;;;;;;;6.38;2.63;;;8.40;99.90;;;;;;5051028;28;20036;-69
2022/01/15 03:49:41;;;;;;;8.10;2.78;;;8.50;99.90;;;;;;5050830;28;20103;-69
2022/01/15 03:52:09;;;;;;;8.38;2.42;;;8.50;99.90;;;;;;5050524;28;20108;-70
2022/01/15 03:54:35;;;;;;;6.05;2.30;;;8.50;99.90;;;;;;5050865;28;20057;-69
2022/01/15 03:57:02;;;;;;;6.53;2.33;;;8.50;99.90;;;;;;5051153;28;20037;-69
2022/01/15 03:59:28;;;;;;;6.67;2.40;;;8.50;99.90;;;;;;5051241;28;20083;-69
2022/01/15 04:01:54;;;;;;;4.18;2.03;;;8.50;99.90;;;;;;5051012;28;20263;-69
2022/01/15 04:04:20;;;;;;;3.93;2.40;;;8.50;99.90;;;;;;5051022;28;20473;-69
2022/01/15 04:06:47;;;;;;;6.70;2.22;;;8.50;99.90;;;;;;5050725;28;20128;-69
2022/01/15 04:09:13;;;;;;;4.20;2.30;;;8.50;99.90;;;;;;5051176;28;20094;-70
2022/01/15 04:11:40;;;;;;;3.92;1.98;;;8.50;99.90;;;;;;5051054;28;20491;-69
2022/01/15 04:14:06;;;;;;;4.13;1.90;;;8.50;99.90;;;;;;5051482;28;20028;-69
2022/01/15 04:16:33;;;;;;;7.50;2.20;;;8.50;99.90;;;;;;5050752;28;20025;-69
2022/01/15 04:19:00;;;;;;;4.43;1.98;;;8.60;99.90;;;;;;5050908;28;20497;-69
2022/01/15 04:21:27;;;;;;;5.32;1.90;;;8.70;99.90;;;;;;5050987;28;20029;-68
2022/01/15 04:23:53;;;;;;;5.97;2.28;;;8.90;99.90;;;;;;5051230;28;20067;-69
2022/01/15 04:26:24;;;;;;;6.65;2.40;;;8.90;99.90;;;;;;5050673;28;20032;-69
2022/01/15 04:28:52;;;;;;;3.78;1.80;;;9.00;99.90;;;;;;5051015;28;20116;-70
2022/01/15 04:31:19;;;;;;;6.30;2.22;;;9.00;99.90;;;;;;5051473;28;20047;-69
2022/01/15 04:33:45;;;;;;;5.65;2.03;;;8.90;99.90;;;;;;5051728;28;20369;-70
2022/01/15 04:36:12;;;;;;;4.00;2.08;;;8.90;99.90;;;;;;5051133;28;20037;-69
2022/01/15 04:38:39;;;;;;;3.35;2.00;;;8.90;99.90;;;;;;5051018;28;20029;-69
2022/01/15 04:41:05;;;;;;;;;;;9.00;99.90;;;;;;5051578;28;20039;-69
2022/01/15 04:43:32;;;;;;;4.53;2.13;;;8.90;99.90;;;;;;5051282;28;20284;-69
2022/01/15 04:45:58;;;;;;;9.23;1.95;;;9.00;99.90;;;;;;5050927;28;20347;-69
2022/01/15 04:48:24;;;;;;;4.53;1.80;;;9.10;99.90;;;;;;5051126;28;20028;-69
2022/01/15 04:50:50;;;;;;;4.40;2.03;;;9.10;99.90;;;;;;5054664;28;20291;-69
2022/01/15 04:53:16;;;;;;;3.60;1.88;;;9.10;99.90;;;;;;5054931;28;20127;-69
2022/01/15 04:55:42;;;;;;;6.60;2.00;;;9.10;99.90;;;;;;5054953;28;20099;-69
2022/01/15 04:58:09;;;;;;;7.30;2.00;;;9.10;99.90;;;;;;5036508;28;20025;-69
2022/01/15 05:00:36;;;;;;;4.50;1.55;;;9.00;99.90;;;;;;5054714;28;20029;-69
2022/01/15 05:03:02;;;;;;;;;;;9.00;99.90;;;;;;5055417;28;20033;-69
2022/01/15 05:05:29;;;;;;;3.35;1.60;;;9.00;99.90;;;;;;5054685;28;19954;-69
2022/01/15 05:07:56;;;;;;;6.60;2.20;;;9.00;99.90;;;;;;5054016;28;20029;-70
2022/01/15 05:10:27;;;;;;;3.92;1.67;;;8.90;99.90;;;;;;5052382;28;20118;-69
2022/01/15 05:12:59;;;;;;;4.43;1.95;;;8.90;99.90;;;;;;5054413;28;20029;-69
2022/01/15 05:15:25;;;;;;;5.80;1.88;;;8.80;99.90;;;;;;5053831;28;20036;-68
2022/01/15 05:17:51;;;;;;;8.20;1.80;;;8.80;99.90;;;;;;5054363;28;20068;-68
2022/01/15 05:20:20;;;;;;;6.40;2.08;;;8.70;99.90;;;;;;5055432;28;20176;-68
2022/01/15 05:22:47;;;;;;;6.00;2.15;;;8.70;99.90;;;;;;5055204;28;20028;-68
2022/01/15 05:25:14;;;;;;;4.75;1.70;;;8.70;99.90;;;;;;5054580;28;20465;-67
2022/01/15 05:27:41;;;;;;;;;;;8.60;99.90;;;;;;5055814;28;20070;-69
2022/01/15 05:30:08;;;;;;;6.75;2.13;;;8.60;99.90;;;;;;5055056;28;20001;-69
2022/01/15 05:32:34;;;;;;;4.13;1.95;;;8.60;99.90;;;;;;5055137;28;20111;-68
2022/01/15 05:35:01;;;;;;;7.78;1.77;;;8.70;99.90;;;;;;5037201;28;20362;-69
2022/01/15 05:37:27;;;;;;;6.47;2.13;;;8.70;99.90;;;;;;5037215;28;20105;-69
2022/01/15 05:39:54;;;;;;;5.60;1.92;;;8.70;99.90;;;;;;5055436;28;20025;-69
2022/01/15 05:42:20;;;;;;;3.83;1.80;;;8.70;99.90;;;;;;5054962;28;20385;-69
2022/01/15 05:44:47;;;;;;;3.92;1.80;;;8.70;99.90;;;;;;5055355;28;20092;-68
2022/01/15 05:47:13;;;;;;;7.88;2.00;;;8.80;99.90;;;;;;5054742;28;20466;-69
2022/01/15 05:49:39;;;;;;;5.55;2.25;;;8.80;99.90;;;;;;5055065;28;20032;-69
2022/01/15 05:52:06;;;;;;;5.43;2.35;;;8.80;99.90;;;;;;5054433;28;20033;-69
2022/01/15 05:54:32;;;;;;;3.88;2.13;;;8.90;99.90;;;;;;5054452;28;20025;-69
2022/01/15 05:56:58;;;;;;;6.40;2.30;;;8.90;99.90;;;;;;5035862;28;20393;-68
2022/01/15 05:59:24;;;;;;;5.43;2.33;;;8.90;99.90;;;;;;5054096;28;20025;-69
2022/01/15 06:01:50;;;;;;;5.85;1.80;;;8.90;99.90;;;;;;5054607;28;20025;-69
2022/01/15 06:04:16;;;;;;;3.03;1.58;;;8.90;99.90;;;;;;5054479;28;20029;-69
2022/01/15 06:06:42;;;;;;;5.30;2.03;;;8.90;99.90;;;;;;5054317;28;20041;-69
2022/01/15 06:09:09;;;;;;;4.15;1.98;;;8.90;99.90;;;;;;5052895;28;20127;-70
2022/01/15 06:11:35;;;;;;;5.28;1.92;;;8.90;99.90;;;;;;5054090;28;20094;-69
2022/01/15 06:14:01;;;;;;;4.88;2.10;;;8.90;99.90;;;;;;5054486;28;20509;-70
2022/01/15 06:16:28;;;;;;;5.28;1.65;;;9.10;99.90;;;;;;5054205;28;20029;-69
2022/01/15 06:18:54;;;;;;;4.47;2.10;;;9.10;99.90;;;;;;5054921;28;20025;-72
2022/01/15 06:21:20;;;;;;;4.53;1.98;;;9.30;99.90;;;;;;5054693;28;20078;-69
2022/01/15 06:23:46;;;;;;;9.20;2.00;;;9.20;99.90;;;;;;5054369;28;20021;-69
2022/01/15 06:26:12;;;;;;;4.65;1.90;;;9.10;99.90;;;;;;5054458;28;20468;-70
2022/01/15 06:28:39;;;;;;;5.97;2.33;;;9.10;99.90;;;;;;5053538;28;20025;-69
2022/01/15 06:31:05;;;;;;;5.73;1.80;;;9.10;99.90;;;;;;5052635;28;20396;-70
2022/01/15 06:33:31;;;;;;;6.72;1.98;;;9.10;99.90;;;;;;5052811;28;20045;-68
2022/01/15 06:35:57;;;;;;;4.55;1.90;;;9.10;99.90;;;;;;5052690;28;20033;-69
2022/01/15 06:38:23;;;;;;;9.50;2.20;;;9.30;99.90;;;;;;5052753;28;20025;-70
2022/01/15 06:40:49;;;;;;;4.70;1.90;;;9.80;99.90;;;;;;5052653;28;20025;-69
2022/01/15 06:43:15;;;;;;;5.17;1.90;;;10.30;99.90;;;;;;5052674;28;20488;-70
2022/01/15 06:45:42;;;;;;;6.40;2.30;;;10.80;99.90;;;;;;5052526;28;20357;-65
2022/01/15 06:48:08;;;;;;;5.35;2.10;;;11.60;99.90;;;;;;5052479;28;20183;-69
2022/01/15 06:50:37;;;;;;;4.40;1.98;;;11.90;99.90;;;;;;5052274;28;20035;-70
2022/01/15 06:53:03;;;;;;;4.13;2.00;;;12.30;99.90;;;;;;5051714;28;20032;-70
2022/01/15 06:55:29;;;;;;;5.47;1.90;;;12.60;99.90;;;;;;5051985;28;20028;-69
2022/01/15 06:57:56;;;;;;;6.07;2.20;;;13.00;99.90;;;;;;5052916;28;20089;-69
2022/01/15 07:00:24;;;;;;;;;;;13.30;99.90;;;;;;5053272;28;20266;-72
2022/01/15 07:02:50;;;;;;;3.58;1.65;;;13.70;99.90;;;;;;5053093;28;19969;-66
2022/01/15 07:05:16;;;;;;;5.32;2.00;;;14.20;99.90;;;;;;5052379;28;20072;-66
2022/01/15 07:07:46;;;;;;;6.38;1.88;;;14.50;99.20;;;;;;5052528;28;20023;-66
2022/01/15 07:10:14;;;;;;;8.60;1.90;;;14.80;99.00;;;;;;5052829;28;20124;-66
2022/01/15 07:12:40;;;;;;;4.38;1.90;;;14.80;98.80;;;;;;5051568;28;20055;-66
2022/01/15 07:15:06;;;;;;;3.50;1.70;;;15.10;99.00;;;;;;5052636;28;20025;-67
2022/01/15 07:17:32;;;;;;;5.13;2.10;;;15.70;97.60;;;;;;5052651;28;20056;-66
2022/01/15 07:19:59;;;;;;;5.07;1.70;;;16.00;99.90;;;;;;5052866;28;20025;-66
2022/01/15 07:22:25;;;;;;;5.07;1.90;;;16.90;96.40;;;;;;5052517;28;20021;-67
2022/01/15 07:24:51;;;;;;;8.55;2.10;;;17.80;95.20;;;;;;5052969;28;20025;-67
2022/01/15 07:27:17;;;;;;;5.25;1.83;;;18.10;94.20;;;;;;5052849;28;20029;-67
2022/01/15 07:29:43;;;;;;;5.80;2.05;;;18.20;93.10;;;;;;5052756;28;20064;-67
2022/01/15 07:32:09;;;;;;;4.75;1.77;;;18.50;93.10;;;;;;5052356;28;20031;-66
2022/01/15 07:34:35;;;;;;;3.65;1.75;;;18.50;92.10;;;;;;5052190;28;20028;-67
2022/01/15 07:37:02;;;;;;;4.22;1.70;;;18.50;92.90;;;;;;5052335;28;20036;-67
2022/01/15 07:39:28;;;;;;;8.40;2.05;;;19.30;91.10;;;;;;5052296;28;20029;-67
2022/01/15 07:41:56;;;;;;;4.85;1.73;;;18.70;93.00;;;;;;5052495;28;20021;-67
2022/01/15 07:44:22;;;;;;;4.38;1.73;;;19.50;91.60;;;;;;5052258;28;20446;-67
2022/01/15 07:46:49;;;;;;;5.00;2.05;;;20.70;90.80;;;;;;5052009;28;20037;-67
2022/01/15 07:49:15;;;;;;;6.32;2.28;;;21.40;88.30;;;;;;5052124;28;20094;-67
2022/01/15 07:51:41;;;;;;;3.88;1.63;;;21.00;86.20;;;;;;5052471;28;20033;-67
2022/01/15 07:54:07;;;;;;;5.65;1.83;;;20.90;85.70;;;;;;5052468;28;20021;-66
2022/01/15 07:56:33;;;;;;;6.20;2.00;;;19.70;86.70;;;;;;5052043;28;20025;-67
2022/01/15 07:58:59;;;;;;;5.50;2.00;;;19.10;90.00;;;;;;5051823;28;20128;-67
2022/01/15 08:01:26;;;;;;;7.10;2.05;;;18.60;91.00;;;;;;5051033;28;20064;-67
2022/01/15 08:03:52;;;;;;;4.18;1.70;;;17.80;91.20;;;;;;5033961;28;20025;-67
2022/01/15 08:06:18;;;;;;;6.75;2.10;;;17.40;92.10;;;;;;5033730;28;20059;-67
2022/01/15 08:08:44;;;;;;;6.35;1.92;;;16.90;92.60;;;;;;5051827;28;20162;-67
2022/01/15 08:11:10;;;;;;;5.10;2.00;;;16.70;93.10;;;;;;5052174;28;20112;-67
2022/01/15 08:13:36;;;;;;;5.63;2.20;;;16.40;93.10;;;;;;5051678;28;20021;-67
2022/01/15 08:16:04;;;;;;;4.47;1.90;;;16.20;93.50;;;;;;5052022;28;20113;-67
2022/01/15 08:18:31;;;;;;;4.28;1.90;;;16.10;93.70;;;;;;5051460;28;20063;-67
2022/01/15 08:20:58;;;;;;;8.40;2.50;;;15.30;94.40;;;;;;5051674;28;20106;-66
2022/01/15 08:23:24;;;;;;;4.43;1.98;;;15.30;95.90;;;;;;5053484;28;20028;-66
2022/01/15 08:25:50;;;;;;;6.57;1.80;;;15.30;95.30;;;;;;5055909;28;20033;-68
2022/01/15 08:28:17;;;;;;;7.67;2.43;;;15.30;95.20;;;;;;5055206;28;20303;-68
2022/01/15 08:30:44;;;;;;;5.93;1.80;;;14.90;96.40;;;;;;5055572;28;20450;-67
2022/01/15 08:33:10;;;;;;;6.85;2.33;;;14.90;96.30;;;;;;5055900;28;20029;-68
2022/01/15 08:35:37;;;;;;;5.30;1.98;;;14.90;96.60;;;;;;5056010;28;20029;-68
2022/01/15 08:38:03;;;;;;;5.25;2.20;;;15.00;96.40;;;;;;5037782;28;20029;-68
2022/01/15 08:40:32;;;;;;;7.18;2.40;;;15.00;96.70;;;;;;5055734;28;20029;-68
2022/01/15 08:42:59;;;;;;;4.47;2.17;;;15.10;96.60;;;;;;5055568;28;20098;-67
2022/01/15 08:45:26;;;;;;;7.45;2.70;;;15.30;96.60;;;;;;5055541;28;20370;-68
2022/01/15 08:47:56;;;;;;;5.32;2.55;;;15.30;96.50;;;;;;5055871;28;20051;-66
2022/01/15 08:50:23;;;;;;;4.43;2.00;;;15.00;97.30;;;;;;5054758;28;20128;-67
2022/01/15 08:52:50;;;;;;;5.20;2.20;;;14.90;97.10;;;;;;5054945;28;20032;-68
2022/01/15 08:55:17;;;;;;;5.32;2.08;;;14.80;97.30;;;;;;5054910;28;20028;-68
2022/01/15 08:57:45;;;;;;;6.75;2.10;;;14.80;97.50;;;;;;5054781;28;20024;-68
2022/01/15 09:00:15;;;;;;;4.47;1.83;;;14.60;97.90;;;;;;5054525;28;20048;-68
2022/01/15 09:02:41;;;;;;;7.97;1.98;;;14.60;98.10;;;;;;5054819;28;20158;-68
2022/01/15 09:05:07;;;;;;;9.43;2.45;;;14.60;98.30;;;;;;5054752;28;20141;-68
2022/01/15 09:07:34;;;;;;;5.22;2.22;;;14.80;98.50;;;;;;5054597;28;20531;-68
2022/01/15 09:10:00;;;;;;;6.32;1.80;;;14.80;98.50;;;;;;5054484;28;20355;-69
2022/01/15 09:12:26;;;;;;;5.57;2.25;;;14.90;97.90;;;;;;5054692;28;20151;-68
2022/01/15 09:14:54;;;;;;;4.67;1.77;;;14.70;98.10;;;;;;5055052;28;20108;-68
2022/01/15 09:17:20;;;;;;;6.55;1.85;;;14.80;98.00;;;;;;5054500;28;20079;-68
2022/01/15 09:19:46;;;;;;;4.83;2.10;;;14.90;98.50;;;;;;5055165;28;20033;-68
2022/01/15 09:22:12;;;;;;;4.20;1.87;;;15.00;98.20;;;;;;5055281;28;20029;-68
2022/01/15 09:24:39;;;;;;;4.60;1.80;;;15.10;97.50;;;;;;5054807;28;20025;-68
2022/01/15 09:32:34;;;;;;;3.97;1.90;;;15.50;97.50;;;;;;5055154;28;20091;-68
2022/01/15 09:35:01;;;;;;;4.10;1.60;;;15.40;97.10;;;;;;5053898;28;20492;-68
2022/01/15 09:37:27;;;;;;;;;;;15.40;97.00;;;;;;5054940;28;20263;-68
2022/01/15 09:39:53;;;;;;;7.38;2.00;;;15.40;97.30;;;;;;5055194;28;20000;-68
2022/01/15 09:42:22;;;;;;;8.03;1.77;;;15.30;96.90;;;;;;5055183;28;20036;-68
2022/01/15 09:44:49;;;;;;;3.88;1.63;;;15.30;96.80;;;;;;5054559;28;20489;-68
2022/01/15 09:47:16;;;;;;;3.50;1.50;;;15.30;96.90;;;;;;5055251;28;20039;-68
2022/01/15 09:49:45;;;;;;;4.82;1.60;;;15.10;97.00;;;;;;5054693;28;20021;-68
2022/01/15 09:52:15;;;;;;;3.83;1.55;;;15.00;97.60;;;;;;5054442;28;20025;-69
2022/01/15 09:54:41;;;;;;;7.28;1.90;;;15.00;97.80;;;;;;5054691;28;20069;-68
2022/01/15 09:57:08;;;;;;;4.97;2.03;;;15.10;97.40;;;;;;5053449;28;20441;-68
2022/01/15 09:59:34;;;;;;;3.70;1.50;;;15.10;98.10;;;;;;5054361;28;20256;-69
2022/01/15 10:02:04;;;;;;;5.00;1.83;;;14.90;97.30;;;;;;5054234;28;20029;-68
2022/01/15 10:04:32;;;;;;;4.03;1.50;;;14.90;97.40;;;;;;5054495;28;20021;-69
2022/01/15 10:07:22;;;;;;;3.45;1.55;;;14.90;97.90;;;;;;5054680;28;20060;-67
2022/01/15 10:09:50;;;;;;;3.42;1.58;;;14.70;97.50;;;;;;5054390;28;20083;-68
2022/01/15 10:12:35;;;;;;;5.53;2.90;;;14.60;98.50;;;;;;5036083;28;20068;-67
2022/01/15 10:15:06;;;;;;;3.38;1.50;;;14.80;98.00;;;;;;5054084;28;20172;-67
2022/01/15 10:17:35;;;;;;;4.32;1.60;;;14.80;97.60;;;;;;5053847;28;20436;-67
2022/01/15 10:20:04;;;;;;;5.57;1.83;;;14.70;97.50;;;;;;5053871;28;20029;-68
2022/01/15 10:22:34;;;;;;;5.50;1.50;;;14.80;97.80;;;;;;5054097;28;20423;-67
2022/01/15 10:25:14;;;;;;;4.85;1.92;;;15.00;98.40;;;;;;5053545;28;20044;-67
2022/01/15 10:27:42;;;;;;;4.50;1.48;;;15.00;97.40;;;;;;5053876;28;20128;-68
2022/01/15 10:30:13;;;;;;;5.53;1.80;;;15.20;97.50;;;;;;5053978;28;20032;-68
2022/01/15 10:32:51;;;;;;;6.18;2.78;;;15.20;97.10;;;;;;5053753;28;20369;-68
2022/01/15 10:35:18;;;;;;;5.00;1.58;;;15.20;96.70;;;;;;5053847;28;20039;-67
2022/01/15 10:37:57;;;;;;;5.65;2.05;;;15.10;97.00;;;;;;5053455;28;20100;-68
2022/01/15 10:40:35;;;;;;;7.55;2.00;;;15.00;97.40;;;;;;5053438;28;20127;-67
2022/01/15 10:43:01;;;;;;;3.92;1.48;;;15.10;97.20;;;;;;5053780;28;20051;-67
2022/01/15 10:45:31;;;;;;;5.90;2.10;;;15.00;97.40;;;;;;5053374;28;20040;-67
2022/01/15 10:48:01;;;;;;;4.45;2.20;;;15.10;97.40;;;;;;5052565;28;20051;-67
2022/01/15 10:50:32;;;;;;;4.93;2.00;;;15.20;97.40;;;;;;5053666;28;20175;-67
2022/01/15 10:53:04;;;;;;;3.55;1.75;;;15.40;97.30;;;;;;5052928;28;20037;-68
2022/01/15 10:55:32;;;;;;;4.82;2.10;;;15.50;96.70;;;;;;5034841;28;20350;-68
2022/01/15 10:58:01;;;;;;;7.13;1.77;;;16.00;96.80;;;;;;5052839;28;20077;-67
2022/01/15 11:00:40;;;;;;;6.50;1.85;;;16.20;96.20;;;;;;5052981;28;20021;-69
2022/01/15 11:03:16;;;;;;;5.88;1.75;;;16.20;96.00;;;;;;5052903;28;20112;-68
2022/01/15 11:05:45;;;;;;;4.40;1.90;;;16.30;96.00;;;;;;5052919;28;20179;-67
2022/01/15 11:08:23;;;;;;;4.35;1.60;;;16.20;95.80;;;;;;5052612;28;20025;-69
2022/01/15 11:11:01;;;;;;;5.72;1.88;;;15.50;96.60;;;;;;5052611;28;20037;-66
2022/01/15 11:13:39;;;;;;;7.82;1.80;;;15.50;97.20;;;;;;5053261;28;20048;-66
2022/01/15 11:16:14;;;;;;;6.50;1.92;;;15.80;96.40;;;;;;5053380;28;20037;-68
2022/01/15 11:18:42;;;;;;;7.05;1.80;;;15.80;95.70;;;;;;5053251;28;20103;-68
2022/01/15 11:21:11;;;;;;;5.35;1.85;;;16.10;95.90;;;;;;5049947;28;20056;-68
2022/01/15 11:23:39;;;;;;;3.30;1.70;;;16.20;95.90;;;;;;5033697;28;20122;-66
2022/01/15 11:26:14;;;;;;;7.13;1.73;;;16.40;96.10;;;;;;5051213;28;20465;-68
2022/01/15 11:28:42;;;;;;;5.40;1.70;;;16.60;95.00;;;;;;5051285;28;20108;-67
2022/01/15 11:31:23;;;;;;;4.35;1.60;;;16.60;95.00;;;;;;5051985;28;20139;-67
2022/01/15 11:33:55;;;;;;;3.05;1.73;;;16.90;94.60;;;;;;5052377;28;20021;-68
2022/01/15 11:36:41;;;;;;;3.78;1.90;;;17.00;94.30;;;;;;5052246;28;20039;-69
2022/01/15 11:39:09;;;;;;;3.00;1.60;;;17.00;93.90;;;;;;5052509;28;20029;-68
2022/01/15 11:41:45;;;;;;;6.60;1.80;;;17.20;93.50;;;;;;5052263;28;20112;-70
2022/01/15 11:44:14;;;;;;;5.00;1.70;;;17.20;93.50;;;;;;5051998;28;20086;-67
2022/01/15 11:46:48;;;;;;;6.38;1.70;;;17.10;93.80;;;;;;5051638;28;20021;-68
2022/01/15 11:49:33;;;;;;;8.13;1.92;;;16.80;93.60;;;;;;5051851;28;20047;-68
2022/01/15 11:52:08;;;;;;;4.22;1.52;;;16.70;93.90;;;;;;5052190;28;20457;-68
2022/01/15 11:54:36;;;;;;;5.20;1.90;;;16.90;93.80;;;;;;5051834;28;20021;-68
2022/01/15 11:57:04;;;;;;;3.42;1.35;;;17.10;93.50;;;;;;5051849;28;20032;-68
2022/01/15 11:59:33;;;;;;;6.38;1.67;;;17.20;92.90;;;;;;5051748;28;20028;-69
2022/01/15 12:02:02;;;;;;;6.15;1.60;;;16.90;93.30;;;;;;5051742;28;20032;-69
2022/01/15 12:04:28;;;;;;;6.10;1.77;;;17.00;93.10;;;;;;5033774;28;20117;-68
2022/01/15 12:07:06;;;;;;;4.47;1.50;;;17.10;93.80;;;;;;5051605;28;20045;-69
2022/01/15 12:09:42;;;;;;;4.10;1.40;;;17.20;93.20;;;;;;5051695;28;20429;-69
2022/01/15 12:12:21;;;;;;;3.22;1.35;;;17.30;93.00;;;;;;5051594;28;20033;-68
2022/01/15 12:14:53;;;;;;;6.22;1.88;;;17.30;93.30;;;;;;5051682;28;20021;-67
2022/01/15 12:17:28;;;;;;;5.35;1.85;;;17.20;93.70;;;;;;5051740;28;20159;-68
2022/01/15 12:19:55;;;;;;;4.88;1.60;;;17.00;93.40;;;;;;5052680;28;20025;-68
2022/01/15 12:22:42;;;;;;;2.80;1.42;;;16.80;93.80;;;;;;5052860;28;20104;-69
2022/01/15 12:25:12;;;;;;;3.55;1.83;;;16.50;93.70;;;;;;5035235;28;20029;-69
2022/01/15 12:27:40;;;;;;;6.15;2.38;;;16.30;94.50;;;;;;5053221;28;20044;-69
2022/01/15 12:30:13;;;;;;;7.05;1.80;;;16.30;95.20;;;;;;5052519;28;20539;-69
2022/01/15 12:32:45;;;;;;;2.30;1.10;;;16.30;94.90;;;;;;5052821;28;20025;-68
2022/01/15 12:35:18;;;;;;;3.67;1.20;;;16.10;94.70;;;;;;5053138;28;20437;-69
2022/01/15 12:38:08;;;;;;;2.97;1.40;;;15.80;95.20;;;;;;5052657;28;20029;-69
2022/01/15 12:40:34;;;;;;;4.93;1.70;;;15.80;95.40;;;;;;5034582;28;20432;-68
2022/01/15 12:43:08;;;;;;;2.37;1.30;;;15.60;95.70;;;;;;5052677;28;20033;-69
2022/01/15 12:45:35;;;;;;;1.95;1.17;;;15.70;96.00;;;;;;5052902;28;20033;-68
2022/01/15 12:48:02;;;;;;;4.20;1.48;;;15.80;95.20;;;;;;5034598;28;20414;-68
2022/01/15 12:50:46;;;;;;;3.05;1.40;;;15.80;95.10;;;;;;5052143;28;20066;-69
2022/01/15 12:53:12;;;;;;;5.20;1.58;;;15.80;95.20;;;;;;5052612;28;20033;-69
2022/01/15 12:55:39;;;;;;;;;;;16.10;95.20;;;;;;5053021;28;20028;-69
2022/01/15 12:58:07;;;;;;;6.82;1.77;;;16.30;94.70;;;;;;5052017;28;19905;-69
2022/01/15 13:00:36;;;;;;;4.00;1.85;;;16.50;94.20;;;;;;5052547;28;20048;-69
2022/01/15 13:03:06;;;;;;;4.22;1.40;;;16.50;94.50;;;;;;5051885;28;20024;-68
2022/01/15 13:05:36;;;;;;;3.88;1.60;;;16.50;94.30;;;;;;5051569;28;20049;-68
2022/01/15 13:08:05;;;;;;;2.80;1.30;;;16.50;94.50;;;;;;5052105;28;20090;-69
2022/01/15 13:10:45;;;;;;;4.22;1.67;;;16.60;94.60;;;;;;5053656;28;20486;-68
2022/01/15 13:13:27;;;;;;;4.70;1.60;;;16.60;94.50;;;;;;5055928;28;20024;-68
2022/01/15 13:16:07;;;;;;;4.28;1.60;;;16.60;94.80;;;;;;5055960;28;20485;-68
2022/01/15 13:18:41;;;;;;;2.78;1.42;;;16.70;95.10;;;;;;5055915;28;20108;-68
2022/01/15 13:21:19;;;;;;;3.00;1.50;;;16.60;95.00;;;;;;5056003;28;20025;-67
2022/01/15 13:23:54;;;;;;;10.13;1.80;;;16.60;95.50;;;;;;5038847;28;20032;-68